Time;durP1;ratioP1;P1;durP2;ratioP2;P2;SDS_P1;SDS_P2;PMS_P1;PMS_P2;Temp;Humidity;BMP_temperature;BMP_pressure;BME280_temperature;BME280_humidity;BME280_pressure;Samples;Min_cycle;Max_cycle;Signal;HPM_P1;HPM_P2
2023/06/25 00:01:24;;;;;;;365.60;349.23;;;16.40;99.90;;;;;;5094355;28;20464;-68
2023/06/25 00:03:51;;;;;;;370.23;353.70;;;16.40;99.90;;;;;;5093322;28;20493;-68
2023/06/25 00:06:21;;;;;;;335.23;320.83;;;16.30;99.90;;;;;;5093948;28;20454;-68
2023/06/25 00:08:48;;;;;;;351.37;335.83;;;16.20;99.90;;;;;;5094200;28;20454;-68
2023/06/25 00:11:15;;;;;;;334.27;319.73;;;16.10;99.90;;;;;;5094120;28;20454;-68
2023/06/25 00:13:42;;;;;;;304.20;292.10;;;16.10;99.90;;;;;;5094214;28;20458;-68
2023/06/25 00:16:09;;;;;;;239.20;230.27;;;16.10;99.90;;;;;;5094054;28;20473;-68
2023/06/25 00:18:36;;;;;;;304.27;292.10;;;16.10;99.90;;;;;;5093893;28;20820;-68
2023/06/25 00:21:05;;;;;;;306.50;294.03;;;16.00;99.90;;;;;;5093835;28;20450;-68
2023/06/25 00:23:33;;;;;;;199.50;192.07;;;16.10;99.90;;;;;;5093881;28;20454;-68
2023/06/25 00:25:59;;;;;;;178.77;172.07;;;16.10;99.90;;;;;;5092915;28;20453;-67
2023/06/25 00:28:26;;;;;;;200.67;193.17;;;16.00;99.90;;;;;;5093003;28;20453;-67
2023/06/25 00:30:53;;;;;;;227.30;218.90;;;16.00;99.90;;;;;;5093272;28;20446;-68
2023/06/25 00:33:20;;;;;;;171.83;165.43;;;16.00;99.90;;;;;;5093578;28;20929;-68
2023/06/25 00:36:06;;;;;;;235.57;226.87;;;15.90;99.70;;;;;;5092995;28;20458;-68
2023/06/25 00:38:34;;;;;;;297.20;285.40;;;16.00;99.90;;;;;;5093028;28;20461;-67
2023/06/25 00:41:01;;;;;;;316.17;303.17;;;16.00;99.90;;;;;;5093360;28;20477;-67
2023/06/25 00:43:28;;;;;;;315.17;302.13;;;16.00;99.90;;;;;;5093318;28;20528;-68
2023/06/25 00:45:55;;;;;;;336.43;322.07;;;15.90;99.90;;;;;;5093263;28;20478;-68
2023/06/25 00:48:22;;;;;;;340.70;325.83;;;16.00;99.90;;;;;;5093156;28;20454;-67
2023/06/25 00:50:49;;;;;;;324.13;310.30;;;16.00;99.90;;;;;;5093008;28;20498;-68
2023/06/25 00:53:18;;;;;;;310.20;297.70;;;16.00;99.90;;;;;;5093412;28;20469;-67
2023/06/25 00:55:50;;;;;;;317.10;303.80;;;16.00;99.90;;;;;;5092792;28;20548;-68
2023/06/25 00:58:20;;;;;;;325.87;312.17;;;16.00;99.90;;;;;;5093586;28;20506;-67
2023/06/25 01:00:48;;;;;;;293.67;281.17;;;16.00;99.90;;;;;;5093088;28;20549;-67
2023/06/25 01:03:26;;;;;;;281.13;270.07;;;16.00;99.90;;;;;;5093095;28;20965;-68
2023/06/25 01:06:00;;;;;;;304.10;291.70;;;15.90;99.90;;;;;;5092560;28;20497;-68
2023/06/25 01:08:29;;;;;;;282.97;271.60;;;15.90;99.90;;;;;;5093409;28;20456;-68
2023/06/25 01:10:58;;;;;;;319.17;306.17;;;15.90;99.90;;;;;;5093072;28;20454;-68
2023/06/25 01:13:25;;;;;;;299.13;286.97;;;15.90;99.90;;;;;;5092474;28;20449;-68
2023/06/25 01:15:52;;;;;;;320.93;307.20;;;15.80;99.90;;;;;;5091976;28;20537;-68
2023/06/25 01:18:22;;;;;;;339.27;324.73;;;15.80;99.90;;;;;;5092248;28;20445;-68
2023/06/25 01:20:52;;;;;;;328.50;314.60;;;15.80;99.90;;;;;;5092753;28;20466;-68
2023/06/25 01:23:21;;;;;;;277.10;266.27;;;15.80;99.90;;;;;;5092965;28;20795;-68
2023/06/25 01:25:48;;;;;;;284.33;272.97;;;15.70;99.90;;;;;;5092502;28;20478;-68
2023/06/25 01:28:19;;;;;;;320.53;307.30;;;15.70;99.90;;;;;;5092998;28;20830;-68
2023/06/25 01:30:47;;;;;;;344.03;329.63;;;15.60;99.90;;;;;;5092602;28;20459;-68
2023/06/25 01:33:16;;;;;;;348.33;333.23;;;15.60;99.90;;;;;;5092660;28;20540;-68
2023/06/25 01:35:43;;;;;;;353.70;338.00;;;15.60;99.90;;;;;;5092663;28;20458;-68
2023/06/25 01:38:10;;;;;;;355.77;340.10;;;15.60;99.90;;;;;;5092842;28;20486;-68
2023/06/25 01:40:39;;;;;;;375.57;359.10;;;15.70;99.90;;;;;;5091993;28;20450;-68
2023/06/25 01:43:08;;;;;;;367.70;350.80;;;15.70;99.90;;;;;;5092367;28;20458;-68
2023/06/25 01:45:35;;;;;;;381.93;363.73;;;15.70;99.90;;;;;;5091848;28;20981;-68
2023/06/25 01:48:02;;;;;;;379.83;362.03;;;15.70;99.90;;;;;;5091997;28;20445;-68
2023/06/25 01:50:28;;;;;;;360.90;344.50;;;15.60;99.90;;;;;;5091729;28;20452;-68
2023/06/25 01:52:55;;;;;;;383.83;366.23;;;15.50;99.90;;;;;;5091810;28;20450;-68
2023/06/25 01:55:22;;;;;;;373.53;355.60;;;15.40;99.90;;;;;;5091836;28;20467;-69
2023/06/25 01:57:50;;;;;;;406.70;387.17;;;15.40;99.90;;;;;;5092731;28;20928;-68
2023/06/25 02:00:18;;;;;;;394.67;375.47;;;15.30;99.90;;;;;;5091880;28;20454;-68
2023/06/25 02:02:44;;;;;;;395.73;377.37;;;15.40;99.90;;;;;;5091690;28;20530;-68
2023/06/25 02:05:11;;;;;;;394.83;376.23;;;15.30;99.90;;;;;;5090702;28;20477;-68
2023/06/25 02:07:38;;;;;;;426.93;404.83;;;15.30;99.90;;;;;;5092306;28;20968;-68
2023/06/25 02:10:06;;;;;;;439.73;418.43;;;15.20;99.90;;;;;;5092318;28;20449;-68
2023/06/25 02:12:33;;;;;;;406.90;387.60;;;15.20;99.90;;;;;;5092495;28;20476;-68
2023/06/25 02:15:01;;;;;;;428.73;407.13;;;15.20;99.90;;;;;;5091731;28;20445;-68
2023/06/25 02:17:28;;;;;;;412.47;392.47;;;15.30;99.90;;;;;;5092365;28;20834;-68
2023/06/25 02:19:54;;;;;;;415.63;394.63;;;15.30;99.90;;;;;;5092280;28;20449;-68
2023/06/25 02:22:21;;;;;;;391.43;373.03;;;15.40;99.90;;;;;;5092539;28;20460;-68
2023/06/25 02:24:48;;;;;;;393.87;375.57;;;15.40;99.90;;;;;;5091886;28;20484;-68
2023/06/25 02:27:15;;;;;;;405.73;385.43;;;15.40;99.90;;;;;;5092388;28;20450;-67
2023/06/25 02:29:42;;;;;;;415.33;394.43;;;15.30;99.90;;;;;;5096050;28;20458;-67
2023/06/25 02:32:10;;;;;;;428.97;407.07;;;15.40;99.90;;;;;;5096218;28;20456;-67
2023/06/25 02:34:37;;;;;;;457.23;433.43;;;15.30;99.90;;;;;;5095252;28;20461;-67
2023/06/25 02:37:13;;;;;;;436.37;413.40;;;15.30;99.90;;;;;;5096153;28;20456;-68
2023/06/25 02:39:40;;;;;;;448.37;424.73;;;15.30;99.90;;;;;;5095880;28;20453;-68
2023/06/25 02:42:07;;;;;;;445.97;422.97;;;15.20;99.90;;;;;;5095741;28;20457;-68
2023/06/25 02:44:34;;;;;;;487.70;460.47;;;15.10;99.90;;;;;;5095656;28;20473;-68
2023/06/25 02:47:00;;;;;;;488.27;461.50;;;15.20;99.90;;;;;;5095990;28;20450;-67
2023/06/25 02:49:29;;;;;;;502.93;474.97;;;15.10;99.90;;;;;;5095627;28;20481;-68
2023/06/25 02:51:55;;;;;;;484.10;456.30;;;15.10;99.90;;;;;;5095825;28;20454;-68
2023/06/25 02:54:22;;;;;;;481.27;453.70;;;15.10;99.90;;;;;;5095227;28;20500;-68
2023/06/25 02:56:50;;;;;;;484.03;456.60;;;15.10;99.90;;;;;;5095819;28;20461;-68
2023/06/25 02:59:17;;;;;;;467.93;441.73;;;15.10;99.90;;;;;;5095578;28;20460;-68
2023/06/25 03:01:44;;;;;;;457.03;432.20;;;15.10;99.90;;;;;;5095603;28;20450;-68
2023/06/25 03:04:11;;;;;;;443.73;418.43;;;15.10;99.90;;;;;;5094570;28;21016;-68
2023/06/25 03:06:39;;;;;;;448.10;423.13;;;15.10;99.90;;;;;;5095452;28;20478;-68
2023/06/25 03:09:07;;;;;;;448.63;424.00;;;15.00;99.90;;;;;;5095115;28;20786;-68
2023/06/25 03:11:34;;;;;;;435.93;412.30;;;15.00;99.90;;;;;;5095378;28;20553;-68
2023/06/25 03:14:01;;;;;;;419.00;397.90;;;15.00;99.90;;;;;;5094923;28;20457;-68
2023/06/25 03:16:28;;;;;;;430.97;408.57;;;14.90;99.90;;;;;;5095130;28;20536;-68
2023/06/25 03:18:55;;;;;;;407.60;387.53;;;14.90;99.90;;;;;;5093722;28;22106;-68
2023/06/25 03:21:21;;;;;;;403.47;383.73;;;14.90;99.90;;;;;;5093814;28;20449;-68
2023/06/25 03:23:49;;;;;;;378.70;360.10;;;14.90;99.90;;;;;;5093446;28;20454;-68
2023/06/25 03:26:16;;;;;;;388.10;368.57;;;15.00;99.90;;;;;;5094866;28;20804;-68
2023/06/25 03:28:43;;;;;;;378.47;360.07;;;15.00;99.90;;;;;;5094530;28;20457;-68
2023/06/25 03:31:10;;;;;;;391.57;370.10;;;15.00;99.90;;;;;;5095089;28;20460;-68
2023/06/25 03:33:37;;;;;;;393.63;374.00;;;15.00;99.90;;;;;;5094692;28;20454;-68
2023/06/25 03:36:04;;;;;;;400.50;380.73;;;15.00;99.90;;;;;;5094286;28;20465;-68
2023/06/25 03:38:31;;;;;;;390.20;371.30;;;15.00;99.90;;;;;;5094629;28;20449;-68
2023/06/25 03:40:59;;;;;;;397.30;376.90;;;14.90;99.90;;;;;;5093680;28;20475;-68
2023/06/25 03:43:26;;;;;;;396.87;377.10;;;14.90;99.90;;;;;;5094716;28;20446;-68
2023/06/25 03:45:52;;;;;;;393.47;374.07;;;15.00;99.90;;;;;;5094088;28;20477;-68
2023/06/25 03:48:20;;;;;;;364.20;346.47;;;15.00;99.90;;;;;;5094393;28;20453;-67
2023/06/25 03:50:47;;;;;;;383.23;365.03;;;15.00;99.90;;;;;;5094330;28;20460;-67
2023/06/25 03:53:14;;;;;;;356.70;339.77;;;15.00;99.90;;;;;;5094257;28;21021;-67
2023/06/25 03:55:40;;;;;;;322.17;308.33;;;15.00;99.90;;;;;;5094207;28;20700;-68
2023/06/25 03:58:09;;;;;;;306.37;293.20;;;15.00;99.90;;;;;;5094403;28;20464;-67
2023/06/25 04:00:35;;;;;;;306.63;293.57;;;15.10;99.90;;;;;;5094138;28;20460;-67
2023/06/25 04:03:02;;;;;;;322.80;308.57;;;15.20;99.90;;;;;;5094122;28;20825;-67
2023/06/25 04:05:29;;;;;;;352.33;336.03;;;15.20;99.90;;;;;;5093982;28;20481;-67
2023/06/25 04:07:56;;;;;;;368.73;351.37;;;15.40;99.90;;;;;;5093883;28;20446;-67
2023/06/25 04:10:23;;;;;;;375.00;356.60;;;15.40;99.90;;;;;;5093281;28;20453;-66
2023/06/25 04:12:50;;;;;;;377.73;358.83;;;15.40;99.90;;;;;;5093230;28;20539;-65
2023/06/25 04:15:18;;;;;;;377.03;358.10;;;15.50;99.90;;;;;;5092682;28;20509;-65
2023/06/25 04:17:48;;;;;;;367.03;348.70;;;15.50;99.90;;;;;;5091575;28;20484;-66
2023/06/25 04:20:15;;;;;;;387.50;368.40;;;15.50;99.90;;;;;;5093273;28;20457;-65
2023/06/25 04:22:41;;;;;;;382.93;364.03;;;15.60;99.90;;;;;;5093995;28;20462;-65
2023/06/25 04:25:08;;;;;;;381.13;363.07;;;15.60;99.90;;;;;;5093144;28;21001;-65
2023/06/25 04:27:35;;;;;;;380.83;362.73;;;15.60;99.90;;;;;;5093667;28;20450;-65
2023/06/25 04:30:02;;;;;;;341.13;325.03;;;15.70;99.90;;;;;;5093319;28;20449;-65
2023/06/25 04:32:32;;;;;;;331.40;316.00;;;15.80;99.90;;;;;;5093601;28;20450;-65
2023/06/25 04:34:59;;;;;;;347.40;330.40;;;15.80;99.90;;;;;;5092413;28;21017;-65
2023/06/25 04:37:26;;;;;;;312.87;299.00;;;16.00;99.90;;;;;;5093476;28;20831;-65
2023/06/25 04:39:53;;;;;;;293.70;281.30;;;16.10;99.90;;;;;;5088354;28;20482;-65
2023/06/25 04:42:20;;;;;;;277.57;265.90;;;16.20;99.90;;;;;;5092066;28;20507;-65
2023/06/25 04:44:47;;;;;;;260.47;249.67;;;16.20;99.90;;;;;;5083241;28;20455;-65
2023/06/25 04:47:14;;;;;;;257.10;246.60;;;16.40;99.90;;;;;;5074633;28;20597;-65
2023/06/25 04:49:42;;;;;;;243.37;233.67;;;16.40;99.90;;;;;;5091430;28;20460;-65
2023/06/25 04:52:11;;;;;;;269.30;258.40;;;16.50;99.90;;;;;;5080958;28;20517;-65
2023/06/25 04:54:38;;;;;;;251.97;241.50;;;16.60;99.90;;;;;;5088984;28;20453;-65
2023/06/25 04:57:06;;;;;;;249.67;239.77;;;16.70;99.90;;;;;;5092850;28;20967;-65
2023/06/25 04:59:33;;;;;;;286.73;274.17;;;16.80;99.90;;;;;;5092548;28;20449;-66
2023/06/25 05:02:00;;;;;;;235.07;225.77;;;16.90;99.90;;;;;;5092460;28;20886;-65
2023/06/25 05:04:26;;;;;;;217.73;209.07;;;17.00;99.90;;;;;;5091603;28;20450;-66
2023/06/25 05:06:56;;;;;;;215.20;207.10;;;17.10;99.90;;;;;;5093294;28;20477;-65
2023/06/25 05:09:22;;;;;;;242.67;233.20;;;17.20;99.90;;;;;;5092957;28;20564;-65
2023/06/25 05:11:49;;;;;;;258.13;247.77;;;17.30;99.90;;;;;;5093066;28;20821;-66
2023/06/25 05:14:17;;;;;;;257.00;246.70;;;17.40;99.90;;;;;;5092686;28;20457;-66
2023/06/25 05:16:43;;;;;;;263.37;252.57;;;17.50;99.90;;;;;;5092577;28;20533;-66
2023/06/25 05:19:10;;;;;;;182.80;175.27;;;17.70;99.90;;;;;;5092728;28;20461;-66
2023/06/25 05:21:37;;;;;;;84.00;80.23;;;18.10;99.90;;;;;;5092487;28;20446;-66
2023/06/25 05:24:06;;;;;;;12.20;10.60;;;18.70;99.90;;;;;;5092089;28;20676;-66
2023/06/25 05:26:33;;;;;;;11.13;6.40;;;19.20;98.10;;;;;;5092287;28;20996;-66
2023/06/25 05:29:00;;;;;;;10.87;5.97;;;20.00;95.50;;;;;;5092853;28;20454;-66
2023/06/25 05:31:27;;;;;;;10.20;5.87;;;20.70;92.60;;;;;;5092744;28;20532;-66
2023/06/25 05:33:54;;;;;;;14.23;6.53;;;21.30;90.90;;;;;;5091947;28;20784;-67
2023/06/25 05:36:20;;;;;;;9.57;6.37;;;21.50;87.40;;;;;;5092892;28;20540;-66
2023/06/25 05:38:47;;;;;;;10.33;6.37;;;22.00;86.40;;;;;;5092634;28;20456;-66
2023/06/25 05:41:15;;;;;;;14.93;7.50;;;22.40;82.90;;;;;;5092405;28;20460;-66
2023/06/25 05:43:44;;;;;;;13.47;7.53;;;22.80;78.20;;;;;;5072673;28;20454;-66
2023/06/25 05:46:11;;;;;;;10.60;7.20;;;22.90;75.20;;;;;;5076879;28;20554;-66
2023/06/25 05:48:38;;;;;;;12.10;7.03;;;23.20;74.00;;;;;;5091882;28;20453;-66
2023/06/25 05:51:05;;;;;;;13.80;7.50;;;23.60;73.40;;;;;;5083225;28;20447;-66
2023/06/25 05:53:47;;;;;;;11.97;5.63;;;24.00;72.20;;;;;;5089498;28;20529;-66
2023/06/25 05:56:15;;;;;;;10.87;6.90;;;24.20;65.70;;;;;;5091457;28;20873;-66
2023/06/25 05:58:42;;;;;;;9.10;5.90;;;24.30;63.40;;;;;;5092271;28;20453;-66
2023/06/25 06:01:10;;;;;;;13.13;6.83;;;24.40;61.70;;;;;;5088680;28;20541;-66
2023/06/25 06:03:37;;;;;;;9.87;6.27;;;24.50;61.00;;;;;;5074158;28;20457;-66
2023/06/25 06:06:04;;;;;;;11.50;7.60;;;24.40;61.70;;;;;;5080419;28;20466;-66
2023/06/25 06:08:31;;;;;;;11.17;7.30;;;24.50;57.40;;;;;;5086450;28;20458;-66
2023/06/25 06:10:58;;;;;;;12.13;7.17;;;24.50;57.40;;;;;;5085761;28;20450;-66
2023/06/25 06:13:26;;;;;;;13.73;7.47;;;24.60;58.20;;;;;;5095422;28;20458;-66
2023/06/25 06:15:53;;;;;;;10.80;7.30;;;24.90;61.60;;;;;;5085783;28;20442;-65
2023/06/25 06:18:19;;;;;;;11.13;7.50;;;24.90;57.80;;;;;;5095508;28;20450;-65
2023/06/25 06:20:46;;;;;;;12.37;7.27;;;25.00;54.90;;;;;;5094847;28;20453;-65
2023/06/25 06:23:13;;;;;;;10.77;7.70;;;25.30;56.10;;;;;;5094662;28;20821;-66
2023/06/25 06:25:40;;;;;;;13.77;8.57;;;25.40;53.80;;;;;;5092442;28;20457;-65
2023/06/25 06:28:06;;;;;;;12.83;8.50;;;25.60;55.70;;;;;;5095713;28;20461;-65
2023/06/25 06:30:35;;;;;;;14.63;8.80;;;25.80;54.90;;;;;;5095731;28;20452;-66
2023/06/25 06:33:02;;;;;;;12.53;7.50;;;25.40;49.90;;;;;;5095892;28;20540;-65
2023/06/25 06:35:28;;;;;;;11.60;7.87;;;25.90;52.60;;;;;;5095386;28;20458;-65
2023/06/25 06:37:55;;;;;;;11.93;7.60;;;26.20;47.90;;;;;;5094916;28;20952;-65
2023/06/25 06:40:22;;;;;;;12.53;6.97;;;26.10;49.70;;;;;;5095815;28;20472;-65
2023/06/25 06:42:50;;;;;;;13.40;7.87;;;26.40;46.80;;;;;;5095975;28;20457;-65
2023/06/25 06:45:16;;;;;;;11.30;7.50;;;26.30;43.90;;;;;;5095426;28;20450;-65
2023/06/25 06:47:45;;;;;;;13.33;8.10;;;26.50;44.50;;;;;;5095719;28;20507;-65
2023/06/25 06:50:12;;;;;;;10.83;8.63;;;26.70;41.90;;;;;;5095420;28;20446;-65
2023/06/25 06:52:43;;;;;;;14.07;7.77;;;26.80;41.20;;;;;;5095880;28;20797;-66
2023/06/25 06:55:10;;;;;;;10.10;7.43;;;26.80;39.10;;;;;;5095371;28;20457;-66
2023/06/25 06:57:37;;;;;;;14.80;7.50;;;27.00;38.70;;;;;;5095013;28;20515;-65
2023/06/25 07:00:06;;;;;;;11.10;8.17;;;27.20;41.30;;;;;;5094599;28;20800;-65
2023/06/25 07:02:32;;;;;;;10.90;7.40;;;27.40;36.10;;;;;;5095651;28;20458;-65
2023/06/25 07:05:02;;;;;;;11.03;8.03;;;27.60;36.10;;;;;;5095088;28;20456;-65
2023/06/25 07:07:28;;;;;;;9.80;6.63;;;27.70;32.60;;;;;;5095503;28;20510;-65
2023/06/25 07:09:55;;;;;;;12.40;6.83;;;28.00;32.80;;;;;;5093376;28;20953;-65
2023/06/25 07:12:22;;;;;;;10.83;6.80;;;28.20;31.20;;;;;;5090462;28;20448;-66
2023/06/25 07:14:49;;;;;;;13.07;7.53;;;28.10;28.60;;;;;;5093595;28;20453;-66
2023/06/25 07:17:16;;;;;;;12.70;7.10;;;28.10;28.20;;;;;;5091731;28;20988;-65
2023/06/25 07:19:43;;;;;;;12.53;6.70;;;28.20;31.90;;;;;;5092953;28;20450;-65
2023/06/25 07:22:11;;;;;;;10.03;7.40;;;28.40;30.90;;;;;;5092376;28;20559;-65
2023/06/25 07:24:38;;;;;;;13.13;7.60;;;28.50;27.90;;;;;;5093360;28;20456;-65
2023/06/25 07:27:05;;;;;;;17.30;7.50;;;28.60;31.50;;;;;;5093121;28;20473;-65
2023/06/25 07:29:32;;;;;;;10.57;6.70;;;28.80;25.40;;;;;;5092471;28;20525;-65
2023/06/25 07:31:59;;;;;;;9.80;7.43;;;28.80;28.70;;;;;;5093418;28;20456;-65
2023/06/25 07:34:26;;;;;;;10.77;6.13;;;28.70;25.30;;;;;;5090418;28;20468;-65
2023/06/25 07:36:52;;;;;;;10.27;7.67;;;29.10;25.50;;;;;;5091940;28;20445;-65
2023/06/25 07:39:29;;;;;;;8.70;6.80;;;29.30;25.60;;;;;;5092618;28;21125;-65
2023/06/25 07:41:56;;;;;;;14.10;7.50;;;29.20;20.70;;;;;;5093257;28;20507;-66
2023/06/25 07:44:23;;;;;;;8.80;6.23;;;29.00;21.30;;;;;;5091854;28;20795;-65
2023/06/25 07:46:50;;;;;;;9.20;6.40;;;29.20;18.10;;;;;;5092319;28;20470;-65
2023/06/25 07:49:17;;;;;;;9.90;6.47;;;29.00;20.00;;;;;;5093458;28;20461;-65
2023/06/25 07:51:45;;;;;;;10.90;8.43;;;29.30;18.20;;;;;;5093088;28;20503;-65
2023/06/25 07:54:12;;;;;;;9.37;7.00;;;29.70;20.80;;;;;;5092360;28;20454;-65
2023/06/25 07:56:43;;;;;;;10.93;7.07;;;29.80;18.40;;;;;;5093941;28;20499;-65
2023/06/25 07:59:10;;;;;;;9.60;6.20;;;29.90;16.20;;;;;;5093976;28;20457;-65
2023/06/25 08:01:36;;;;;;;8.30;6.10;;;29.80;15.90;;;;;;5094159;28;20465;-65
2023/06/25 08:04:03;;;;;;;10.43;6.00;;;30.00;14.70;;;;;;5093532;28;20442;-65
2023/06/25 08:06:30;;;;;;;9.37;6.50;;;30.00;13.60;;;;;;5094113;28;20480;-65
2023/06/25 08:08:57;;;;;;;11.73;6.30;;;30.10;13.50;;;;;;5093279;28;20541;-65
2023/06/25 08:11:24;;;;;;;9.37;6.03;;;30.10;11.00;;;;;;5092362;28;20536;-65
2023/06/25 08:13:52;;;;;;;12.53;6.63;;;30.20;11.00;;;;;;5090647;28;20450;-66
2023/06/25 08:16:19;;;;;;;10.40;5.67;;;30.30;11.30;;;;;;5093382;28;20446;-66
2023/06/25 08:18:45;;;;;;;9.27;6.23;;;30.30;11.00;;;;;;5092611;28;20452;-65
2023/06/25 08:21:12;;;;;;;8.77;6.07;;;30.50;11.10;;;;;;5079905;28;20453;-66
2023/06/25 08:23:39;;;;;;;9.57;6.73;;;30.70;13.20;;;;;;5091960;28;20490;-65
2023/06/25 08:26:06;;;;;;;9.10;6.17;;;30.60;9.00;;;;;;5091215;28;20446;-65
2023/06/25 08:28:33;;;;;;;10.30;6.83;;;30.90;8.90;;;;;;5092445;28;20860;-65
2023/06/25 08:31:01;;;;;;;9.97;6.87;;;30.90;6.80;;;;;;5092907;28;20925;-65
2023/06/25 08:33:28;;;;;;;8.80;6.13;;;31.10;8.10;;;;;;5092940;28;20453;-65
2023/06/25 08:35:55;;;;;;;9.07;6.57;;;30.90;5.00;;;;;;5092391;28;20634;-65
2023/06/25 08:38:22;;;;;;;11.83;6.30;;;31.30;6.10;;;;;;5092574;28;20541;-66
2023/06/25 08:40:49;;;;;;;15.23;6.07;;;31.70;6.20;;;;;;5092675;28;20452;-66
2023/06/25 08:43:16;;;;;;;9.67;6.70;;;31.70;4.00;;;;;;5093276;28;20456;-66
2023/06/25 08:45:43;;;;;;;9.77;5.90;;;31.80;5.10;;;;;;5091852;28;20446;-65
2023/06/25 08:48:13;;;;;;;12.00;6.40;;;31.90;4.00;;;;;;5092829;28;20827;-65
2023/06/25 08:50:42;;;;;;;9.90;6.37;;;32.00;1.80;;;;;;5092082;28;20450;-65
2023/06/25 08:53:09;;;;;;;8.70;5.10;;;31.90;4.00;;;;;;5091785;28;20453;-65
2023/06/25 08:55:38;;;;;;;8.87;6.03;;;32.20;1.30;;;;;;5092089;28;20449;-65
2023/06/25 08:58:05;;;;;;;9.17;6.97;;;32.20;1.00;;;;;;5083719;28;20442;-66
2023/06/25 09:00:32;;;;;;;11.73;6.53;;;32.30;1.00;;;;;;5092380;28;20453;-66
2023/06/25 09:02:59;;;;;;;9.00;5.47;;;32.50;1.00;;;;;;5092246;28;20446;-66
2023/06/25 09:05:28;;;;;;;9.00;6.30;;;32.50;1.00;;;;;;5092283;28;20460;-66
2023/06/25 09:07:56;;;;;;;8.87;5.87;;;32.60;1.00;;;;;;5092928;28;20480;-66
2023/06/25 09:10:23;;;;;;;10.57;6.30;;;32.20;1.00;;;;;;5092639;28;20457;-67
2023/06/25 09:12:51;;;;;;;8.20;6.10;;;32.50;1.00;;;;;;5092439;28;20450;-65
2023/06/25 09:15:21;;;;;;;8.97;5.67;;;32.60;1.00;;;;;;5092377;28;20456;-66
2023/06/25 09:17:48;;;;;;;10.93;7.10;;;32.60;1.00;;;;;;5092757;28;20499;-66
2023/06/25 09:20:15;;;;;;;9.17;6.10;;;32.90;1.00;;;;;;5092437;28;20450;-66
2023/06/25 09:22:53;;;;;;;9.43;5.97;;;32.90;1.00;;;;;;5092909;28;20888;-66
2023/06/25 09:25:22;;;;;;;8.87;5.50;;;33.10;1.00;;;;;;5092048;28;20460;-66
2023/06/25 09:27:49;;;;;;;8.63;6.00;;;33.40;1.00;;;;;;5091933;28;20470;-66
2023/06/25 09:30:18;;;;;;;8.40;5.37;;;33.70;1.00;;;;;;5092042;28;20944;-66
2023/06/25 09:32:51;;;;;;;7.97;5.80;;;34.10;1.00;;;;;;5092760;28;20852;-66
2023/06/25 09:35:20;;;;;;;10.30;5.50;;;34.00;1.00;;;;;;5090970;28;20461;-67
2023/06/25 09:37:46;;;;;;;8.77;5.43;;;33.90;1.00;;;;;;5091353;28;20845;-67
2023/06/25 09:40:15;;;;;;;8.10;5.67;;;33.90;1.00;;;;;;5091402;28;20462;-66
2023/06/25 09:42:44;;;;;;;8.50;5.50;;;34.10;1.00;;;;;;5091002;28;20446;-66
2023/06/25 09:45:15;;;;;;;11.13;5.53;;;34.50;1.00;;;;;;5091494;28;20514;-65
2023/06/25 09:47:43;;;;;;;8.07;4.90;;;34.70;1.00;;;;;;5091659;28;20477;-66
2023/06/25 09:50:15;;;;;;;7.87;5.37;;;35.00;1.00;;;;;;5090390;28;20503;-66
2023/06/25 09:52:44;;;;;;;9.13;5.70;;;34.70;1.00;;;;;;5089158;28;20450;-67
2023/06/25 09:55:11;;;;;;;8.93;5.30;;;34.40;1.00;;;;;;5083943;28;20458;-66
2023/06/25 09:57:40;;;;;;;7.60;5.67;;;35.10;1.00;;;;;;5072116;28;20462;-66
2023/06/25 10:00:10;;;;;;;7.53;4.90;;;34.90;1.00;;;;;;5079790;28;20968;-66
2023/06/25 10:02:37;;;;;;;8.70;5.93;;;35.10;1.00;;;;;;5091412;28;20449;-65
2023/06/25 10:05:04;;;;;;;7.10;4.73;;;35.00;1.00;;;;;;5082269;28;20814;-66
2023/06/25 10:07:31;;;;;;;9.83;5.30;;;34.70;1.00;;;;;;5090747;28;20473;-66
2023/06/25 10:09:58;;;;;;;7.53;4.27;;;35.10;1.00;;;;;;5091485;28;20519;-66
2023/06/25 10:12:25;;;;;;;8.37;5.20;;;35.30;1.00;;;;;;5091499;28;20651;-66
2023/06/25 10:14:53;;;;;;;8.13;4.57;;;35.00;1.00;;;;;;5091550;28;20430;-66
2023/06/25 10:17:21;;;;;;;9.23;4.50;;;35.50;1.00;;;;;;5092095;28;20476;-66
2023/06/25 10:19:57;;;;;;;7.27;4.80;;;35.50;1.00;;;;;;5091785;28;20453;-66
2023/06/25 10:22:25;;;;;;;11.97;6.17;;;35.60;1.00;;;;;;5091786;28;20452;-66
2023/06/25 10:24:53;;;;;;;8.63;5.90;;;35.80;1.00;;;;;;5090361;28;20450;-66
2023/06/25 10:27:22;;;;;;;9.20;6.33;;;36.40;1.00;;;;;;5090348;28;20469;-67
2023/06/25 10:29:49;;;;;;;7.13;4.83;;;36.70;1.00;;;;;;5090913;28;20450;-66
2023/06/25 10:32:20;;;;;;;7.87;4.90;;;36.50;1.00;;;;;;5091945;28;20456;-67
2023/06/25 10:34:53;;;;;;;7.50;4.63;;;36.30;1.00;;;;;;5090915;28;20449;-67
2023/06/25 10:37:20;;;;;;;7.30;4.87;;;36.90;1.00;;;;;;5092520;28;20441;-67
2023/06/25 10:39:47;;;;;;;8.23;4.80;;;37.10;1.00;;;;;;5091630;28;20421;-66
2023/06/25 10:42:14;;;;;;;8.10;4.73;;;36.60;1.00;;;;;;5091744;28;20453;-67
2023/06/25 10:44:41;;;;;;;8.37;5.37;;;37.10;1.00;;;;;;5091427;28;20428;-67
2023/06/25 10:47:09;;;;;;;6.67;4.20;;;37.20;1.00;;;;;;5091552;28;20911;-66
2023/06/25 10:49:38;;;;;;;7.03;4.50;;;38.00;1.00;;;;;;5092620;28;20424;-66
2023/06/25 10:52:08;;;;;;;7.77;5.30;;;37.90;1.00;;;;;;5094621;28;20424;-66
2023/06/25 10:54:35;;;;;;;7.60;4.37;;;37.70;1.00;;;;;;5094778;28;20804;-66
2023/06/25 10:57:09;;;;;;;7.50;4.90;;;37.20;1.00;;;;;;5095206;28;20424;-66
2023/06/25 10:59:36;;;;;;;9.67;5.50;;;37.30;1.00;;;;;;5094278;28;20461;-66
2023/06/25 11:02:11;;;;;;;7.87;4.80;;;38.10;1.00;;;;;;5094399;28;20431;-66
2023/06/25 11:04:39;;;;;;;7.97;4.90;;;37.30;1.00;;;;;;5093869;28;20456;-66
2023/06/25 11:07:06;;;;;;;6.80;4.70;;;37.70;1.00;;;;;;5094765;28;20425;-66
2023/06/25 11:09:33;;;;;;;7.83;5.83;;;38.30;1.00;;;;;;5093144;28;20421;-67
2023/06/25 11:12:00;;;;;;;7.73;4.53;;;38.50;1.00;;;;;;5093287;28;20478;-66
2023/06/25 11:14:26;;;;;;;8.87;5.33;;;38.50;1.00;;;;;;5093905;28;20431;-66
2023/06/25 11:16:53;;;;;;;7.60;5.37;;;39.00;1.00;;;;;;5094468;28;20450;-66
2023/06/25 11:19:20;;;;;;;7.90;4.77;;;39.50;1.00;;;;;;5090858;28;20449;-67
2023/06/25 11:21:50;;;;;;;8.10;4.43;;;39.60;1.00;;;;;;5093991;28;20446;-67
2023/06/25 11:24:17;;;;;;;7.13;4.47;;;39.70;1.00;;;;;;5086447;28;20441;-67
2023/06/25 11:26:44;;;;;;;8.57;4.77;;;39.20;1.00;;;;;;5094636;28;20420;-67
2023/06/25 11:29:12;;;;;;;7.83;5.17;;;39.30;1.00;;;;;;5094640;28;20473;-67
2023/06/25 11:31:48;;;;;;;8.57;5.43;;;38.60;1.00;;;;;;5094627;28;20766;-66
2023/06/25 11:34:21;;;;;;;7.77;5.00;;;38.50;1.00;;;;;;5094080;28;20422;-68
2023/06/25 11:36:49;;;;;;;8.40;4.50;;;38.70;1.00;;;;;;5094285;28;20631;-66
2023/06/25 11:39:17;;;;;;;6.70;4.67;;;39.20;1.00;;;;;;5093910;28;20471;-67
2023/06/25 11:41:44;;;;;;;9.20;5.70;;;38.90;1.00;;;;;;5094898;28;20432;-67
2023/06/25 11:44:18;;;;;;;7.37;4.67;;;38.70;1.00;;;;;;5093440;28;20446;-67
2023/06/25 11:46:46;;;;;;;11.43;5.50;;;39.50;1.00;;;;;;5090566;28;20479;-67
2023/06/25 11:49:13;;;;;;;8.67;4.57;;;39.50;1.00;;;;;;5093285;28;20446;-67
2023/06/25 11:51:39;;;;;;;8.97;5.27;;;39.80;1.00;;;;;;5093139;28;20934;-66
2023/06/25 11:54:07;;;;;;;8.00;5.20;;;39.90;1.00;;;;;;5093430;28;20428;-66
2023/06/25 11:56:34;;;;;;;8.40;5.33;;;41.10;1.00;;;;;;5093809;28;20456;-66
2023/06/25 11:59:01;;;;;;;9.20;5.27;;;40.70;1.00;;;;;;5093422;28;20451;-68
2023/06/25 12:01:29;;;;;;;7.03;4.63;;;39.70;1.00;;;;;;5092800;28;20428;-68
2023/06/25 12:03:55;;;;;;;7.70;5.20;;;39.80;1.00;;;;;;5093304;28;20648;-69
2023/06/25 12:06:23;;;;;;;6.93;4.30;;;40.30;1.00;;;;;;5093798;28;20424;-68
2023/06/25 12:08:49;;;;;;;6.27;4.50;;;39.90;1.00;;;;;;5092881;28;20947;-67
2023/06/25 12:11:18;;;;;;;6.90;4.53;;;40.80;1.00;;;;;;5094034;28;20796;-68
2023/06/25 12:13:45;;;;;;;7.10;4.57;;;39.80;1.00;;;;;;5093441;28;20800;-68
2023/06/25 12:16:12;;;;;;;9.57;4.57;;;40.70;1.00;;;;;;5093681;28;20432;-68
2023/06/25 12:18:39;;;;;;;7.00;4.40;;;40.50;1.00;;;;;;5092649;28;20444;-69
2023/06/25 12:21:06;;;;;;;7.33;5.00;;;40.30;1.00;;;;;;5092916;28;20452;-69
2023/06/25 12:23:33;;;;;;;6.83;4.70;;;40.10;1.00;;;;;;5093646;28;20427;-68
2023/06/25 12:26:00;;;;;;;8.53;5.10;;;39.30;1.00;;;;;;5092708;28;20477;-70
2023/06/25 12:28:28;;;;;;;7.10;4.70;;;37.80;1.00;;;;;;5093702;28;20446;-68
2023/06/25 12:30:55;;;;;;;8.93;5.40;;;39.00;1.00;;;;;;5093408;28;20924;-69
2023/06/25 12:33:22;;;;;;;6.73;4.43;;;39.90;1.00;;;;;;5093350;28;21012;-68